Time;durP1;ratioP1;P1;durP2;ratioP2;P2;SDS_P1;SDS_P2;PMS_P1;PMS_P2;Temp;Humidity;BMP_temperature;BMP_pressure;BME280_temperature;BME280_humidity;BME280_pressure;Samples;Min_cycle;Max_cycle;Signal;HPM_P1;HPM_P2
2021/10/26 00:00:18;;;;;;;12.60;6.82;;;7.00;99.90;;;;;;5051141;28;20103;-68
2021/10/26 00:02:44;;;;;;;12.65;8.10;;;7.00;99.90;;;;;;5052086;28;20122;-68
2021/10/26 00:05:10;;;;;;;13.02;7.57;;;7.00;99.90;;;;;;5051142;28;20087;-68
2021/10/26 00:07:36;;;;;;;10.90;6.82;;;7.10;99.90;;;;;;5051392;28;20036;-68
2021/10/26 00:10:05;;;;;;;10.82;6.97;;;7.20;99.90;;;;;;5051521;28;20130;-68
2021/10/26 00:12:31;;;;;;;9.30;6.38;;;7.30;99.90;;;;;;5050635;28;20029;-68
2021/10/26 00:14:58;;;;;;;8.80;6.40;;;7.40;99.90;;;;;;5051111;28;20029;-68
2021/10/26 00:17:24;;;;;;;11.98;6.88;;;7.40;99.90;;;;;;5050554;28;20049;-68
2021/10/26 00:19:49;;;;;;;8.63;6.95;;;7.40;99.90;;;;;;5051004;28;20029;-68
2021/10/26 00:22:16;;;;;;;11.45;7.28;;;7.50;99.90;;;;;;5050138;28;21510;-69
2021/10/26 00:24:42;;;;;;;9.75;6.95;;;7.50;99.90;;;;;;5051458;28;20021;-68
2021/10/26 00:27:09;;;;;;;10.23;6.80;;;7.50;99.90;;;;;;5051101;28;20021;-68
2021/10/26 00:29:34;;;;;;;8.35;6.63;;;7.50;99.90;;;;;;5050805;28;20024;-68
2021/10/26 00:32:01;;;;;;;9.90;7.10;;;7.40;99.90;;;;;;5051055;28;20393;-68
2021/10/26 00:34:27;;;;;;;10.35;6.95;;;7.50;99.90;;;;;;5050387;28;20029;-68
2021/10/26 00:36:52;;;;;;;10.95;6.90;;;7.50;99.90;;;;;;5055611;28;20038;-68
2021/10/26 00:39:18;;;;;;;12.43;7.05;;;7.50;99.90;;;;;;5050301;28;20443;-68
2021/10/26 00:41:45;;;;;;;10.10;6.93;;;7.60;99.90;;;;;;5050846;28;20136;-68
2021/10/26 00:44:10;;;;;;;11.73;7.80;;;7.60;99.90;;;;;;5050526;28;20041;-68
2021/10/26 00:46:37;;;;;;;10.30;6.80;;;7.70;99.90;;;;;;5050742;28;20074;-68
2021/10/26 00:49:05;;;;;;;10.73;6.53;;;7.80;99.90;;;;;;5050552;28;20032;-68
2021/10/26 00:51:32;;;;;;;13.63;7.30;;;7.80;99.90;;;;;;5049278;28;20128;-68
2021/10/26 00:53:58;;;;;;;10.55;6.47;;;7.80;99.90;;;;;;5050544;28;20036;-68
2021/10/26 00:56:25;;;;;;;8.50;5.90;;;7.80;99.90;;;;;;5049848;28;20104;-68
2021/10/26 00:58:51;;;;;;;8.18;6.00;;;7.90;99.90;;;;;;5049020;28;20040;-68
2021/10/26 01:01:17;;;;;;;11.55;6.93;;;7.90;99.90;;;;;;5052499;28;20123;-68
2021/10/26 01:03:43;;;;;;;13.00;7.35;;;7.90;99.90;;;;;;5053018;28;20037;-68
2021/10/26 01:06:09;;;;;;;9.55;7.13;;;7.90;99.90;;;;;;5051769;28;20104;-68
2021/10/26 01:08:35;;;;;;;9.13;6.20;;;7.90;99.90;;;;;;5051441;28;20039;-68
2021/10/26 01:11:01;;;;;;;9.80;6.80;;;7.90;99.90;;;;;;5052374;28;20394;-68
2021/10/26 01:13:28;;;;;;;11.68;7.47;;;8.00;99.90;;;;;;5051088;28;20492;-69
2021/10/26 01:15:57;;;;;;;15.18;7.40;;;8.00;99.90;;;;;;5052066;28;20029;-68
2021/10/26 01:18:24;;;;;;;11.20;6.93;;;8.10;99.90;;;;;;5051261;28;20040;-68
2021/10/26 01:20:50;;;;;;;13.90;7.88;;;8.20;99.90;;;;;;5052125;28;20060;-68
2021/10/26 01:23:16;;;;;;;11.13;6.60;;;8.20;99.90;;;;;;5051431;28;20028;-68
2021/10/26 01:25:42;;;;;;;9.38;6.55;;;8.20;99.90;;;;;;5052308;28;20025;-68
2021/10/26 01:28:08;;;;;;;10.25;7.05;;;8.20;99.90;;;;;;5051951;28;20032;-69
2021/10/26 01:30:34;;;;;;;11.02;7.53;;;8.10;99.90;;;;;;5051188;28;20033;-69
2021/10/26 01:33:03;;;;;;;12.43;7.60;;;8.10;99.90;;;;;;5052050;28;20029;-68
2021/10/26 01:35:29;;;;;;;11.20;6.72;;;8.10;99.90;;;;;;5050291;28;20021;-68
2021/10/26 01:37:55;;;;;;;11.48;7.28;;;8.10;99.90;;;;;;5050616;28;20393;-68
2021/10/26 01:40:21;;;;;;;15.00;7.32;;;8.10;99.90;;;;;;5051333;28;20028;-68
2021/10/26 01:42:48;;;;;;;16.20;7.55;;;8.10;99.90;;;;;;5051592;28;20029;-68
2021/10/26 01:45:16;;;;;;;18.27;8.05;;;8.20;99.90;;;;;;5051524;28;20033;-69
2021/10/26 01:47:42;;;;;;;19.77;7.80;;;8.20;99.90;;;;;;5051967;28;20044;-69
2021/10/26 01:50:11;;;;;;;14.82;7.57;;;8.30;99.90;;;;;;5051669;28;20025;-68
2021/10/26 01:52:37;;;;;;;14.30;7.82;;;8.30;99.90;;;;;;5049798;28;20037;-68
2021/10/26 01:55:04;;;;;;;13.30;7.45;;;8.30;99.90;;;;;;5051868;28;20100;-69
2021/10/26 01:57:30;;;;;;;10.63;6.90;;;8.30;99.90;;;;;;5050398;28;20374;-68
2021/10/26 01:59:57;;;;;;;11.02;7.03;;;8.20;99.90;;;;;;5051154;28;20030;-68
2021/10/26 02:02:25;;;;;;;12.00;7.75;;;8.20;99.90;;;;;;5050864;28;20025;-69
2021/10/26 02:04:51;;;;;;;11.05;6.00;;;8.10;99.90;;;;;;5051657;28;20056;-69
2021/10/26 02:07:17;;;;;;;10.93;7.20;;;8.10;99.90;;;;;;5050429;28;20382;-68
2021/10/26 02:09:43;;;;;;;11.70;7.28;;;8.10;99.90;;;;;;5051231;28;20563;-68
2021/10/26 02:12:10;;;;;;;16.17;8.40;;;8.00;99.90;;;;;;5051420;28;20136;-69
2021/10/26 02:14:36;;;;;;;17.35;9.30;;;8.00;99.90;;;;;;5050521;28;20074;-69
2021/10/26 02:17:04;;;;;;;16.20;8.82;;;8.00;99.90;;;;;;5051356;28;20021;-69
2021/10/26 02:19:30;;;;;;;16.77;8.63;;;8.00;99.90;;;;;;5050496;28;20025;-69
2021/10/26 02:21:56;;;;;;;19.98;8.65;;;8.00;99.90;;;;;;5051001;28;20033;-69
2021/10/26 02:24:22;;;;;;;14.80;9.57;;;7.90;99.90;;;;;;5050202;28;20436;-69
2021/10/26 02:26:48;;;;;;;14.85;10.23;;;7.90;99.90;;;;;;5051221;28;20025;-69
2021/10/26 02:29:14;;;;;;;15.80;9.73;;;7.90;99.90;;;;;;5050965;28;20082;-69
2021/10/26 02:31:40;;;;;;;21.73;9.93;;;7.80;99.90;;;;;;5050379;28;20032;-69
2021/10/26 02:34:06;;;;;;;13.63;9.40;;;7.80;99.90;;;;;;5051619;28;20036;-68
2021/10/26 02:36:32;;;;;;;12.80;8.98;;;7.70;99.90;;;;;;5049827;28;20390;-68
2021/10/26 02:38:58;;;;;;;17.48;10.32;;;7.70;99.90;;;;;;5051101;28;20029;-68
2021/10/26 02:41:24;;;;;;;16.55;10.70;;;7.70;99.90;;;;;;5050483;28;20040;-69
2021/10/26 02:43:49;;;;;;;16.40;10.70;;;7.70;99.90;;;;;;5051080;28;20053;-69
2021/10/26 02:46:15;;;;;;;16.15;10.95;;;7.70;99.90;;;;;;5051827;28;20067;-69
2021/10/26 02:48:42;;;;;;;21.52;11.23;;;7.70;99.90;;;;;;5054779;28;20057;-69
2021/10/26 02:51:09;;;;;;;18.63;10.88;;;7.70;99.90;;;;;;5054696;28;20090;-68
2021/10/26 02:53:34;;;;;;;17.33;11.15;;;7.70;99.90;;;;;;5054113;28;20049;-68
2021/10/26 02:56:00;;;;;;;16.40;11.02;;;7.70;99.90;;;;;;5054747;28;20025;-68
2021/10/26 02:58:26;;;;;;;15.85;10.73;;;7.70;99.90;;;;;;5054009;28;20032;-69
2021/10/26 03:00:52;;;;;;;15.82;11.15;;;7.70;99.90;;;;;;5055089;28;20135;-69
2021/10/26 03:03:18;;;;;;;17.30;12.23;;;7.70;99.90;;;;;;5054093;28;20059;-69
2021/10/26 03:05:44;;;;;;;17.83;11.00;;;7.80;99.90;;;;;;5054624;28;20060;-69
2021/10/26 03:08:10;;;;;;;19.13;12.02;;;7.80;99.90;;;;;;5054569;28;20112;-69
2021/10/26 03:10:36;;;;;;;24.20;12.98;;;7.80;99.90;;;;;;5047931;28;20310;-69
2021/10/26 03:13:02;;;;;;;17.30;13.52;;;7.70;99.90;;;;;;5038385;28;20069;-69
2021/10/26 03:15:29;;;;;;;18.15;12.32;;;7.80;99.90;;;;;;5046698;28;20433;-69
2021/10/26 03:17:55;;;;;;;16.50;11.45;;;7.70;99.90;;;;;;5054647;28;20025;-69
2021/10/26 03:20:21;;;;;;;20.73;12.60;;;7.70;99.90;;;;;;5054045;28;20025;-69
2021/10/26 03:22:46;;;;;;;16.88;11.75;;;7.60;99.90;;;;;;5054499;28;20420;-69
2021/10/26 03:25:12;;;;;;;19.63;12.30;;;7.60;99.90;;;;;;5054612;28;20413;-68
2021/10/26 03:27:38;;;;;;;26.38;13.85;;;7.60;99.90;;;;;;5053592;28;20626;-68
2021/10/26 03:30:06;;;;;;;19.70;13.18;;;7.60;99.90;;;;;;5054670;28;20029;-68
2021/10/26 03:32:32;;;;;;;19.25;14.02;;;7.50;99.90;;;;;;5053357;28;20428;-68
2021/10/26 03:34:57;;;;;;;21.58;13.60;;;7.50;99.90;;;;;;5054437;28;20028;-69
2021/10/26 03:37:23;;;;;;;22.13;13.30;;;7.50;99.90;;;;;;5053277;28;20418;-69
2021/10/26 03:39:54;;;;;;;21.25;14.05;;;7.50;99.90;;;;;;5054119;28;20112;-69
2021/10/26 03:42:23;;;;;;;18.88;13.73;;;7.50;99.90;;;;;;5053505;28;20064;-69
2021/10/26 03:44:49;;;;;;;20.17;14.20;;;7.60;99.90;;;;;;5054263;28;20398;-69
2021/10/26 03:47:15;;;;;;;19.23;13.43;;;7.60;99.90;;;;;;5053987;28;20090;-69
2021/10/26 03:49:41;;;;;;;23.27;15.60;;;7.60;99.90;;;;;;5053376;28;20108;-69
2021/10/26 03:52:07;;;;;;;24.75;14.57;;;7.60;99.90;;;;;;5053770;28;20137;-69
2021/10/26 03:54:33;;;;;;;21.23;13.98;;;7.60;99.90;;;;;;5052920;28;20175;-69
2021/10/26 03:56:59;;;;;;;22.27;14.70;;;7.60;99.90;;;;;;5052908;28;20033;-69
2021/10/26 03:59:30;;;;;;;19.50;13.98;;;7.60;99.90;;;;;;5052892;28;20036;-69
2021/10/26 04:01:57;;;;;;;22.08;14.48;;;7.60;99.90;;;;;;5043213;28;20398;-69
2021/10/26 04:04:23;;;;;;;19.73;12.20;;;7.60;99.90;;;;;;5052741;28;20116;-69
2021/10/26 04:06:49;;;;;;;18.95;13.07;;;7.60;99.90;;;;;;5053411;28;20155;-69
2021/10/26 04:09:21;;;;;;;18.73;13.60;;;7.50;99.90;;;;;;5052288;28;20021;-69
2021/10/26 04:12:06;;;;;;;25.45;15.10;;;7.50;99.90;;;;;;5052210;28;20462;-68
2021/10/26 04:14:31;;;;;;;24.52;14.50;;;7.40;99.90;;;;;;5052946;28;20041;-68
2021/10/26 04:16:57;;;;;;;23.58;15.35;;;7.40;99.90;;;;;;5053205;28;20024;-68
2021/10/26 04:19:23;;;;;;;22.90;15.40;;;7.40;99.90;;;;;;5052817;28;20037;-69
2021/10/26 04:21:48;;;;;;;20.85;14.80;;;7.30;99.90;;;;;;5053166;28;20047;-69
2021/10/26 04:24:14;;;;;;;24.00;16.10;;;7.30;99.90;;;;;;5052477;28;20037;-69
2021/10/26 04:26:39;;;;;;;27.13;17.52;;;7.30;99.90;;;;;;5052365;28;20025;-69
2021/10/26 04:29:05;;;;;;;22.33;15.27;;;7.30;99.90;;;;;;5053290;28;20375;-67
2021/10/26 04:31:31;;;;;;;25.20;15.68;;;7.30;99.90;;;;;;5051895;28;20099;-67
2021/10/26 04:33:56;;;;;;;24.73;14.93;;;7.30;99.90;;;;;;5053129;28;20032;-67
2021/10/26 04:36:22;;;;;;;23.42;15.80;;;7.30;99.90;;;;;;5051868;28;20021;-67
2021/10/26 04:38:47;;;;;;;23.42;16.83;;;7.30;99.90;;;;;;5052933;28;20078;-67
2021/10/26 04:41:13;;;;;;;24.30;16.05;;;7.40;99.90;;;;;;5052863;28;20040;-67
2021/10/26 04:43:39;;;;;;;24.38;15.98;;;7.30;99.90;;;;;;5051861;28;20045;-67
2021/10/26 04:46:04;;;;;;;25.17;16.75;;;7.40;99.90;;;;;;5052185;28;20033;-67
2021/10/26 04:48:31;;;;;;;24.95;16.38;;;7.40;99.90;;;;;;5051002;28;20115;-68
2021/10/26 04:50:57;;;;;;;21.70;15.30;;;7.30;99.90;;;;;;5052380;28;20048;-67
2021/10/26 04:53:24;;;;;;;21.10;15.77;;;7.30;99.90;;;;;;5051833;28;20025;-68
2021/10/26 04:55:50;;;;;;;20.67;14.85;;;7.30;99.90;;;;;;5052187;28;20029;-67
2021/10/26 04:58:16;;;;;;;24.42;15.40;;;7.30;99.90;;;;;;5052679;28;20036;-67
2021/10/26 05:00:42;;;;;;;24.48;15.43;;;7.20;99.90;;;;;;5051445;28;20509;-67
2021/10/26 05:03:07;;;;;;;25.63;16.60;;;7.20;99.90;;;;;;5052136;28;20025;-67
2021/10/26 05:05:33;;;;;;;30.08;17.38;;;7.20;99.90;;;;;;5051532;28;20049;-67
2021/10/26 05:08:00;;;;;;;25.88;16.65;;;7.20;99.90;;;;;;5051704;28;20390;-67
2021/10/26 05:10:27;;;;;;;22.23;16.17;;;7.20;99.90;;;;;;5051295;28;20029;-67
2021/10/26 05:12:53;;;;;;;22.45;15.43;;;7.20;99.90;;;;;;5051658;28;20031;-67
2021/10/26 05:15:25;;;;;;;25.90;17.35;;;7.20;99.90;;;;;;5051136;28;20111;-68
2021/10/26 05:17:52;;;;;;;25.48;16.90;;;7.20;99.90;;;;;;5051953;28;20090;-68
2021/10/26 05:20:19;;;;;;;23.50;16.80;;;7.20;99.90;;;;;;5051429;28;20462;-68
2021/10/26 05:22:45;;;;;;;24.60;17.75;;;7.20;99.90;;;;;;5051314;28;20024;-68
2021/10/26 05:25:10;;;;;;;26.52;18.65;;;7.30;99.90;;;;;;5051226;28;20462;-68
2021/10/26 05:27:39;;;;;;;26.45;17.75;;;7.30;99.90;;;;;;5051308;28;20036;-68
2021/10/26 05:30:05;;;;;;;28.02;18.10;;;7.30;99.90;;;;;;5051806;28;20033;-68
2021/10/26 05:32:32;;;;;;;27.92;17.45;;;7.30;99.90;;;;;;5050877;28;20063;-68
2021/10/26 05:34:58;;;;;;;27.75;19.02;;;7.30;99.90;;;;;;5052097;28;20021;-67
2021/10/26 05:37:24;;;;;;;28.67;18.67;;;7.30;99.90;;;;;;5051247;28;20382;-68
2021/10/26 05:39:49;;;;;;;25.30;17.42;;;7.30;99.90;;;;;;5050979;28;20032;-68
2021/10/26 05:42:15;;;;;;;28.80;18.25;;;7.30;99.90;;;;;;5051300;28;20040;-68
2021/10/26 05:44:41;;;;;;;30.13;18.10;;;7.40;99.90;;;;;;5050905;28;20616;-67
2021/10/26 05:47:06;;;;;;;25.42;16.85;;;7.40;99.90;;;;;;5051535;28;20053;-70
2021/10/26 05:49:32;;;;;;;24.55;16.73;;;7.40;99.90;;;;;;5051021;28;20100;-71
2021/10/26 05:51:59;;;;;;;25.23;16.45;;;7.30;99.90;;;;;;5051184;28;20041;-75
2021/10/26 05:54:25;;;;;;;25.75;17.75;;;7.40;99.90;;;;;;5050657;28;20029;-71
2021/10/26 05:56:51;;;;;;;26.63;17.95;;;7.30;99.90;;;;;;5051755;28;20039;-72
2021/10/26 05:59:17;;;;;;;31.33;18.90;;;7.30;99.90;;;;;;5051719;28;20103;-68
2021/10/26 06:01:42;;;;;;;32.42;21.08;;;7.30;99.90;;;;;;5050327;28;20036;-68
2021/10/26 06:04:08;;;;;;;32.60;20.52;;;7.30;99.90;;;;;;5051383;28;20022;-68
2021/10/26 06:06:34;;;;;;;33.47;19.55;;;7.40;99.90;;;;;;5050903;28;20416;-69
2021/10/26 06:09:00;;;;;;;28.70;19.38;;;7.40;99.90;;;;;;5048302;28;20029;-69
2021/10/26 06:11:26;;;;;;;34.22;21.50;;;7.40;99.90;;;;;;5048314;28;20037;-69
2021/10/26 06:14:02;;;;;;;28.48;19.77;;;7.40;99.90;;;;;;5050209;28;20029;-70
2021/10/26 06:16:30;;;;;;;36.70;22.17;;;7.40;99.90;;;;;;5050398;28;20048;-69
2021/10/26 06:18:56;;;;;;;31.40;21.08;;;7.40;99.90;;;;;;5050548;28;20111;-69
2021/10/26 06:21:22;;;;;;;31.77;20.70;;;7.40;99.90;;;;;;5053004;28;20032;-69
2021/10/26 06:23:48;;;;;;;34.38;20.77;;;7.40;99.90;;;;;;5054970;28;20028;-69
2021/10/26 06:26:14;;;;;;;29.55;18.83;;;7.50;99.90;;;;;;5054554;28;20393;-70
2021/10/26 06:28:40;;;;;;;30.60;20.02;;;7.50;99.90;;;;;;5054425;28;20107;-69
2021/10/26 06:31:05;;;;;;;40.45;21.45;;;7.50;99.90;;;;;;5054375;28;20478;-69
2021/10/26 06:33:32;;;;;;;25.83;18.40;;;7.60;99.90;;;;;;5053825;28;20036;-69
2021/10/26 06:35:58;;;;;;;24.95;17.95;;;7.60;99.90;;;;;;5054790;28;20029;-69
2021/10/26 06:38:30;;;;;;;25.65;16.58;;;7.60;99.90;;;;;;5054924;28;20371;-69
2021/10/26 06:40:56;;;;;;;23.83;16.73;;;7.60;99.90;;;;;;5054898;28;20095;-68
2021/10/26 06:43:22;;;;;;;32.28;19.38;;;7.70;99.90;;;;;;5054181;28;20086;-68
2021/10/26 06:45:48;;;;;;;27.73;19.38;;;7.70;99.90;;;;;;5053855;28;20037;-69
2021/10/26 06:48:14;;;;;;;28.23;18.23;;;7.70;99.90;;;;;;5055001;28;20029;-69
2021/10/26 06:50:41;;;;;;;23.77;17.23;;;7.70;99.90;;;;;;5053608;28;20033;-69
2021/10/26 06:53:06;;;;;;;23.73;15.88;;;7.70;99.90;;;;;;5054234;28;20079;-68
2021/10/26 06:55:32;;;;;;;26.65;18.90;;;7.70;99.90;;;;;;5053826;28;20033;-69
2021/10/26 06:57:58;;;;;;;24.60;17.17;;;7.80;99.90;;;;;;5054610;28;20040;-69
2021/10/26 07:00:25;;;;;;;26.00;17.65;;;7.80;99.90;;;;;;5053132;28;20033;-69
2021/10/26 07:02:54;;;;;;;28.00;18.38;;;7.90;99.90;;;;;;5054306;28;20035;-69
2021/10/26 07:05:24;;;;;;;25.55;17.48;;;7.90;99.90;;;;;;5054194;28;20043;-69
2021/10/26 07:07:51;;;;;;;27.48;19.65;;;8.00;99.90;;;;;;5052137;28;20025;-69
2021/10/26 07:10:18;;;;;;;25.65;18.70;;;8.10;99.90;;;;;;5052845;28;20029;-69
2021/10/26 07:12:44;;;;;;;25.90;18.10;;;8.20;99.90;;;;;;5053060;28;20406;-69
2021/10/26 07:15:12;;;;;;;24.65;16.02;;;8.20;99.90;;;;;;5053348;28;20040;-69
2021/10/26 07:17:39;;;;;;;23.20;16.48;;;8.30;99.90;;;;;;5053079;28;20085;-69
2021/10/26 07:20:07;;;;;;;19.25;15.57;;;8.40;99.90;;;;;;5053934;28;20021;-70
2021/10/26 07:22:34;;;;;;;23.55;16.45;;;8.40;99.90;;;;;;5053387;28;20037;-69
2021/10/26 07:25:05;;;;;;;26.25;17.52;;;8.50;99.90;;;;;;5053743;28;20100;-69
2021/10/26 07:27:31;;;;;;;24.42;16.88;;;8.50;99.90;;;;;;5053122;28;20158;-69
2021/10/26 07:29:56;;;;;;;26.55;17.67;;;8.60;99.90;;;;;;5054015;28;20040;-69
2021/10/26 07:32:23;;;;;;;27.75;17.45;;;8.60;99.90;;;;;;5052511;28;20032;-70
2021/10/26 07:34:49;;;;;;;19.38;14.73;;;8.70;99.90;;;;;;5053375;28;20016;-69
2021/10/26 07:37:18;;;;;;;21.90;14.73;;;8.70;99.90;;;;;;5053332;28;20033;-70
2021/10/26 07:39:46;;;;;;;22.98;15.60;;;8.80;99.90;;;;;;5053166;28;20114;-69
2021/10/26 07:42:16;;;;;;;26.13;15.90;;;8.80;99.90;;;;;;5053354;28;20386;-69
2021/10/26 07:44:43;;;;;;;;;;;8.80;99.90;;;;;;5053678;28;20055;-70
2021/10/26 07:47:09;;;;;;;20.48;14.52;;;8.80;99.90;;;;;;5053169;28;20389;-71
2021/10/26 07:49:35;;;;;;;20.77;14.52;;;8.80;99.90;;;;;;5053310;28;20075;-71
2021/10/26 07:52:04;;;;;;;21.10;14.68;;;8.90;99.90;;;;;;5052136;28;20044;-70
2021/10/26 07:54:30;;;;;;;22.33;15.85;;;8.90;99.90;;;;;;5052291;28;20486;-70
2021/10/26 07:56:56;;;;;;;24.60;15.88;;;9.00;99.90;;;;;;5053580;28;20040;-70
2021/10/26 07:59:22;;;;;;;23.50;15.73;;;9.10;99.90;;;;;;5053498;28;20025;-70
2021/10/26 08:01:48;;;;;;;23.35;14.45;;;9.30;99.90;;;;;;5052552;28;20035;-70
2021/10/26 08:04:15;;;;;;;25.67;15.48;;;9.30;99.90;;;;;;5053116;28;20045;-70
2021/10/26 08:06:45;;;;;;;23.08;14.60;;;9.30;99.90;;;;;;5052052;28;20040;-70
2021/10/26 08:09:11;;;;;;;26.65;14.45;;;9.40;99.90;;;;;;5052077;28;20025;-71
2021/10/26 08:11:37;;;;;;;23.98;13.98;;;9.50;99.90;;;;;;5051834;28;20075;-70
2021/10/26 08:14:06;;;;;;;19.30;13.07;;;9.50;99.90;;;;;;5052211;28;20056;-70
2021/10/26 08:16:32;;;;;;;19.27;13.48;;;9.60;99.90;;;;;;5051987;28;20061;-70
2021/10/26 08:18:59;;;;;;;19.65;13.70;;;9.70;99.90;;;;;;5052696;28;20479;-69
2021/10/26 08:21:25;;;;;;;17.92;12.45;;;9.80;99.90;;;;;;5052238;28;20112;-70
2021/10/26 08:23:51;;;;;;;17.20;13.15;;;9.90;99.90;;;;;;5052035;28;20021;-71
2021/10/26 08:26:22;;;;;;;18.10;13.23;;;10.00;99.90;;;;;;5051654;28;20048;-71
2021/10/26 08:28:52;;;;;;;24.13;14.15;;;10.10;99.90;;;;;;5050750;28;20044;-70
2021/10/26 08:31:28;;;;;;;20.10;13.50;;;10.30;99.90;;;;;;5051145;28;20553;-70
2021/10/26 08:34:07;;;;;;;21.15;13.60;;;10.40;99.90;;;;;;5051320;28;20036;-70
2021/10/26 08:36:34;;;;;;;18.15;13.38;;;10.60;99.90;;;;;;5051255;28;20112;-70
2021/10/26 08:39:00;;;;;;;18.80;12.88;;;10.70;99.90;;;;;;5052048;28;20530;-71
2021/10/26 08:41:28;;;;;;;21.17;13.45;;;10.70;99.90;;;;;;5050587;28;20378;-71
2021/10/26 08:43:54;;;;;;;17.80;12.52;;;10.70;99.90;;;;;;5050863;28;20508;-71
2021/10/26 08:46:21;;;;;;;18.90;13.05;;;10.80;99.90;;;;;;5051464;28;20120;-71
2021/10/26 08:48:50;;;;;;;17.92;12.18;;;10.90;99.90;;;;;;5050919;28;20429;-70
2021/10/26 08:51:17;;;;;;;17.95;13.00;;;10.90;99.90;;;;;;5051844;28;20048;-70
2021/10/26 08:53:46;;;;;;;19.85;13.13;;;11.10;99.90;;;;;;5050213;28;20494;-70
2021/10/26 08:56:12;;;;;;;19.95;12.15;;;11.30;99.90;;;;;;5044001;28;20020;-71
2021/10/26 08:58:38;;;;;;;14.68;11.77;;;11.40;99.90;;;;;;5051262;28;20481;-69
2021/10/26 09:01:05;;;;;;;19.58;12.75;;;11.50;99.90;;;;;;5051390;28;20033;-70
2021/10/26 09:03:39;;;;;;;20.58;12.35;;;11.60;99.90;;;;;;5050908;28;20044;-69
2021/10/26 09:06:06;;;;;;;18.15;12.98;;;11.60;99.90;;;;;;5050937;28;20048;-69
2021/10/26 09:08:32;;;;;;;27.55;13.13;;;11.60;99.90;;;;;;5051189;28;20029;-69
2021/10/26 09:11:15;;;;;;;19.02;11.57;;;11.60;99.90;;;;;;5050608;28;20048;-70
2021/10/26 09:16:56;;;;;;;14.40;11.45;;;11.80;99.90;;;;;;5028121;28;20049;-70
2021/10/26 09:19:26;;;;;;;17.58;11.45;;;12.00;99.90;;;;;;5050926;28;20033;-71
2021/10/26 09:22:03;;;;;;;17.27;11.05;;;12.30;99.90;;;;;;5050394;28;20115;-70
2021/10/26 09:24:31;;;;;;;15.43;10.57;;;12.50;99.90;;;;;;5050967;28;20036;-70
2021/10/26 09:27:00;;;;;;;15.45;11.80;;;12.70;99.90;;;;;;5050751;28;20033;-70
2021/10/26 09:29:35;;;;;;;20.15;11.95;;;12.80;99.90;;;;;;5051234;28;20485;-70
2021/10/26 09:32:11;;;;;;;17.45;12.05;;;12.90;99.90;;;;;;5050815;28;20490;-70
2021/10/26 09:34:47;;;;;;;19.25;11.25;;;12.90;99.90;;;;;;5050345;28;20104;-70
2021/10/26 09:37:15;;;;;;;16.88;11.35;;;13.10;99.90;;;;;;5050895;28;20029;-71
2021/10/26 09:39:53;;;;;;;19.42;11.48;;;13.10;99.90;;;;;;5050025;28;20033;-70
2021/10/26 09:42:20;;;;;;;14.02;10.57;;;13.20;99.90;;;;;;5051033;28;20036;-70
2021/10/26 09:44:50;;;;;;;19.52;12.38;;;13.20;99.90;;;;;;5049958;28;20443;-70
2021/10/26 09:47:25;;;;;;;16.33;11.93;;;13.30;99.90;;;;;;5050435;28;20067;-70
2021/10/26 09:49:58;;;;;;;20.80;12.23;;;13.20;99.90;;;;;;5049279;28;20029;-69
2021/10/26 09:52:26;;;;;;;18.58;11.38;;;13.20;99.90;;;;;;5050652;28;20041;-70
2021/10/26 09:55:06;;;;;;;16.35;11.65;;;13.20;99.90;;;;;;5049596;28;20029;-70
2021/10/26 09:57:37;;;;;;;17.58;11.73;;;13.20;99.90;;;;;;5050350;28;20382;-70
2021/10/26 10:00:08;;;;;;;18.35;11.13;;;13.20;99.90;;;;;;5049943;28;20087;-71
2021/10/26 10:02:35;;;;;;;18.05;11.43;;;13.40;99.90;;;;;;5050101;28;20029;-70
2021/10/26 10:05:08;;;;;;;14.43;11.05;;;13.40;99.90;;;;;;5050657;28;20032;-70
2021/10/26 10:07:38;;;;;;;18.42;10.77;;;13.50;99.90;;;;;;5048954;28;20025;-69
2021/10/26 10:10:11;;;;;;;14.63;11.15;;;13.70;99.90;;;;;;5050625;28;20033;-70
2021/10/26 10:12:42;;;;;;;15.30;9.85;;;13.80;99.90;;;;;;5049806;28;20041;-70
2021/10/26 10:15:09;;;;;;;9.85;5.93;;;14.00;99.90;;;;;;5050785;28;20142;-70
2021/10/26 10:17:36;;;;;;;12.75;6.22;;;14.10;99.90;;;;;;5050018;28;20029;-70
2021/10/26 10:20:08;;;;;;;5.80;3.10;;;14.30;99.90;;;;;;5050381;28;20025;-70
2021/10/26 10:22:39;;;;;;;5.40;3.10;;;14.40;99.90;;;;;;5049544;28;20064;-70
2021/10/26 10:25:07;;;;;;;4.85;2.42;;;14.60;99.90;;;;;;5050490;28;20033;-70
2021/10/26 10:27:43;;;;;;;5.30;2.33;;;14.70;99.90;;;;;;5050313;28;20040;-69
2021/10/26 10:30:09;;;;;;;5.20;2.45;;;14.80;99.90;;;;;;5048655;28;20031;-70
2021/10/26 10:32:38;;;;;;;4.53;2.15;;;14.70;99.90;;;;;;5049345;28;20451;-70
2021/10/26 10:35:10;;;;;;;5.25;2.58;;;14.80;99.90;;;;;;5050178;28;20037;-70
2021/10/26 10:37:37;;;;;;;4.65;2.40;;;15.00;99.90;;;;;;5049999;28;20028;-69
2021/10/26 10:40:05;;;;;;;6.03;2.70;;;15.10;99.90;;;;;;5040748;28;20034;-70
2021/10/26 10:42:31;;;;;;;4.90;2.65;;;15.20;99.90;;;;;;5038984;28;20123;-70
2021/10/26 10:45:02;;;;;;;3.70;2.45;;;15.40;99.90;;;;;;5049632;28;20048;-71
2021/10/26 10:47:47;;;;;;;3.38;2.10;;;15.50;99.90;;;;;;5050230;28;20048;-70
2021/10/26 10:50:26;;;;;;;5.88;2.15;;;15.60;99.90;;;;;;5036990;28;20087;-70
2021/10/26 10:53:15;;;;;;;8.93;2.72;;;15.80;99.90;;;;;;5041016;28;20459;-70
2021/10/26 10:55:45;;;;;;;4.85;2.92;;;15.90;99.90;;;;;;5029952;28;20053;-69
2021/10/26 10:58:38;;;;;;;6.95;2.53;;;15.90;99.90;;;;;;5029124;28;20033;-70
2021/10/26 11:01:22;;;;;;;8.85;2.20;;;15.90;99.90;;;;;;5030335;28;20037;-70
2021/10/26 11:03:50;;;;;;;5.00;2.20;;;15.80;99.90;;;;;;5029604;28;20390;-70
2021/10/26 11:06:40;;;;;;;5.35;2.30;;;15.90;99.90;;;;;;5030954;28;20037;-70
2021/10/26 11:09:37;;;;;;;3.40;2.00;;;15.90;99.90;;;;;;5040702;28;20450;-71
2021/10/26 11:12:37;;;;;;;5.10;2.10;;;15.90;99.90;;;;;;5046346;28;20029;-70
2021/10/26 11:15:13;;;;;;;3.92;2.55;;;16.10;99.90;;;;;;5033992;28;20034;-69
2021/10/26 11:17:42;;;;;;;6.53;2.85;;;16.20;99.90;;;;;;5032884;28;20386;-70
2021/10/26 11:20:28;;;;;;;5.03;2.72;;;16.20;99.90;;;;;;5038686;28;20474;-70
2021/10/26 11:23:02;;;;;;;9.00;2.17;;;16.30;99.90;;;;;;5050238;28;20041;-71
2021/10/26 11:25:27;;;;;;;8.95;2.30;;;16.20;99.90;;;;;;5052396;28;20033;-71
2021/10/26 11:27:55;;;;;;;6.00;2.85;;;16.20;99.90;;;;;;5039591;28;20155;-70
2021/10/26 11:30:44;;;;;;;3.97;1.92;;;16.10;99.90;;;;;;5053571;28;20100;-70
2021/10/26 11:33:13;;;;;;;4.88;2.08;;;16.10;99.90;;;;;;5045889;28;20041;-70
2021/10/26 11:35:55;;;;;;;5.38;2.13;;;16.10;99.90;;;;;;5050439;28;20415;-71
2021/10/26 11:38:26;;;;;;;6.55;2.47;;;16.10;99.90;;;;;;5048961;28;20025;-71
2021/10/26 11:41:10;;;;;;;5.43;1.88;;;16.10;99.90;;;;;;5050584;28;20482;-71
2021/10/26 11:43:40;;;;;;;4.28;1.90;;;16.20;99.90;;;;;;5050006;28;20051;-71
2021/10/26 11:46:08;;;;;;;6.35;2.63;;;16.20;99.90;;;;;;5051695;28;20032;-71
2021/10/26 11:48:51;;;;;;;3.95;1.98;;;16.10;99.90;;;;;;5051661;28;20108;-71
2021/10/26 11:51:34;;;;;;;6.43;2.25;;;16.10;99.90;;;;;;5050920;28;20041;-71
2021/10/26 11:54:07;;;;;;;7.85;2.15;;;16.10;99.90;;;;;;5047841;28;20048;-70
2021/10/26 11:56:43;;;;;;;6.85;2.25;;;16.00;99.90;;;;;;5051715;28;20211;-70
2021/10/26 11:59:17;;;;;;;4.15;2.53;;;15.90;99.90;;;;;;5049835;28;20116;-71
2021/10/26 12:01:49;;;;;;;5.85;2.25;;;15.80;99.90;;;;;;5050607;28;20063;-70
2021/10/26 12:04:31;;;;;;;5.00;2.35;;;15.60;99.90;;;;;;5051297;28;20687;-71
2021/10/26 12:07:00;;;;;;;6.68;2.13;;;15.40;99.90;;;;;;5049945;28;20521;-70
2021/10/26 12:09:39;;;;;;;5.38;2.40;;;15.30;99.90;;;;;;5052035;28;20474;-71
2021/10/26 12:12:11;;;;;;;5.28;1.90;;;15.10;99.90;;;;;;5050429;28;21802;-71
2021/10/26 12:14:41;;;;;;;3.35;2.45;;;15.00;99.90;;;;;;5051294;28;20043;-70
2021/10/26 12:17:08;;;;;;;4.70;2.13;;;14.90;99.90;;;;;;5051903;28;20033;-72
2021/10/26 12:19:44;;;;;;;3.53;2.20;;;14.80;99.90;;;;;;5051745;28;20340;-89
2021/10/26 12:22:17;;;;;;;5.18;2.42;;;14.70;99.90;;;;;;5053308;28;20035;-77
2021/10/26 12:25:26;;;;;;;4.72;1.90;;;14.60;99.90;;;;;;5051851;28;20029;-70
2021/10/26 12:27:57;;;;;;;8.27;2.30;;;14.50;99.90;;;;;;5045859;28;20029;-70
2021/10/26 12:30:24;;;;;;;4.28;2.42;;;14.50;99.90;;;;;;5052001;28;20052;-70
2021/10/26 12:32:52;;;;;;;3.05;2.03;;;14.50;99.90;;;;;;5052934;28;20029;-70
2021/10/26 12:35:18;;;;;;;5.30;2.50;;;14.60;99.90;;;;;;5051830;28;20364;-71
2021/10/26 12:37:44;;;;;;;4.38;1.80;;;14.80;99.90;;;;;;5051507;28;20052;-71
2021/10/26 12:40:20;;;;;;;5.55;1.67;;;14.90;99.90;;;;;;5052098;28;20083;-72
2021/10/26 12:43:08;;;;;;;6.60;2.38;;;15.00;99.90;;;;;;5050853;28;20029;-71
2021/10/26 12:45:39;;;;;;;6.18;2.17;;;15.00;99.90;;;;;;5051489;28;20515;-71
2021/10/26 12:48:05;;;;;;;4.70;2.20;;;15.10;99.90;;;;;;5051626;28;20048;-71
2021/10/26 12:50:46;;;;;;;3.75;2.30;;;15.20;99.90;;;;;;5051560;28;20036;-70